Time;durP1;ratioP1;P1;durP2;ratioP2;P2;SDS_P1;SDS_P2;PMS_P1;PMS_P2;Temp;Humidity;BMP_temperature;BMP_pressure;BME280_temperature;BME280_humidity;BME280_pressure;Samples;Min_cycle;Max_cycle;Signal;HPM_P1;HPM_P2
2022/06/28 00:01:58;;;;;;;33.08;31.33;;;;;;;20.79;49.52;101943.28;5054900;28;20031;-78
2022/06/28 00:04:23;;;;;;;34.80;32.90;;;;;;;20.78;49.70;101945.22;5056431;28;20595;-78
2022/06/28 00:06:49;;;;;;;33.70;31.88;;;;;;;20.76;49.60;101944.66;5055751;28;20458;-78
2022/06/28 00:09:14;;;;;;;32.90;31.27;;;;;;;20.74;49.66;101953.22;5055732;28;20032;-78
2022/06/28 00:11:42;;;;;;;33.83;32.10;;;;;;;20.74;49.63;101957.88;5038543;28;20048;-78
2022/06/28 00:16:04;;;;;;;34.45;32.53;;;;;;;20.72;49.42;101947.16;5055687;28;20033;-78
2022/06/28 00:16:54;;;;;;;33.28;31.52;;;;;;;20.69;49.56;101945.00;5055225;28;20104;-79
2022/06/28 00:19:20;;;;;;;33.58;31.77;;;;;;;20.68;49.18;101954.31;5053650;28;20519;-79
2022/06/28 00:21:47;;;;;;;33.05;31.40;;;;;;;20.67;49.41;101958.19;5053879;28;20036;-79
2022/06/28 00:24:12;;;;;;;33.83;31.85;;;;;;;20.65;49.63;101951.31;5055981;28;20043;-79
2022/06/28 00:26:38;;;;;;;34.10;32.17;;;;;;;20.64;49.23;101953.25;5055157;28;20053;-79
2022/06/28 00:29:03;;;;;;;33.90;31.90;;;;;;;20.63;49.34;101945.28;5055908;28;20037;-78
2022/06/28 00:31:29;;;;;;;35.97;34.08;;;;;;;20.60;49.31;101943.94;5054653;28;20055;-78
2022/06/28 00:33:54;;;;;;;35.30;33.40;;;;;;;20.60;49.54;101940.38;5055562;28;20121;-79
2022/06/28 00:36:20;;;;;;;33.95;32.03;;;;;;;20.58;49.64;101948.88;5055335;28;20550;-76
2022/06/28 00:38:45;;;;;;;35.47;33.45;;;;;;;20.57;49.57;101951.91;5055189;28;20036;-79
2022/06/28 00:41:10;;;;;;;34.40;32.50;;;;;;;20.54;49.59;101942.28;5055119;28;20385;-79
2022/06/28 00:43:36;;;;;;;34.47;32.58;;;;;;;20.53;49.16;101952.41;5055537;28;20115;-79
2022/06/28 00:46:02;;;;;;;33.72;31.92;;;;;;;20.53;49.54;101965.34;5054773;28;20477;-79
2022/06/28 00:48:28;;;;;;;34.67;32.63;;;;;;;20.51;49.53;101959.28;5054813;28;20029;-79
2022/06/28 00:50:54;;;;;;;32.92;31.13;;;;;;;20.49;49.81;101965.09;5054845;28;20060;-79
2022/06/28 00:53:19;;;;;;;32.45;30.75;;;;;;;20.48;49.64;101959.88;5055115;28;20058;-80
2022/06/28 00:55:45;;;;;;;32.60;30.80;;;;;;;20.47;49.46;101963.72;5054961;28;20036;-79
2022/06/28 00:58:12;;;;;;;31.27;29.48;;;;;;;20.45;49.29;101960.44;5055001;28;20037;-78
2022/06/28 01:00:44;;;;;;;33.95;31.88;;;;;;;20.44;49.73;101964.28;5055243;28;20115;-79
2022/06/28 01:03:12;;;;;;;32.97;31.17;;;;;;;20.41;49.77;101960.19;5054920;28;20037;-79
2022/06/28 01:05:40;;;;;;;32.63;30.88;;;;;;;20.41;49.29;101959.34;5055172;28;20128;-79
2022/06/28 01:08:06;;;;;;;34.38;31.17;;;;;;;20.38;49.58;101966.19;5054547;28;20104;-81
2022/06/28 01:10:33;;;;;;;33.70;31.60;;;;;;;20.38;49.37;101968.13;5054360;28;20116;-79
2022/06/28 01:12:58;;;;;;;32.00;30.20;;;;;;;20.36;49.48;101959.34;5054761;28;20032;-80
2022/06/28 01:15:24;;;;;;;31.60;29.80;;;;;;;20.34;49.74;101961.56;5054380;28;20037;-79
2022/06/28 01:17:49;;;;;;;31.92;30.25;;;;;;;20.32;49.82;101970.88;5054234;28;20036;-80
2022/06/28 01:20:15;;;;;;;32.22;30.52;;;;;;;20.31;49.33;101969.25;5054570;28;20055;-79
2022/06/28 01:22:41;;;;;;;33.53;31.73;;;;;;;20.29;49.54;101965.16;5054158;28;20032;-80
2022/06/28 01:25:10;;;;;;;32.78;30.88;;;;;;;20.27;49.55;101965.41;5052875;28;20477;-80
2022/06/28 01:27:36;;;;;;;33.13;31.23;;;;;;;20.27;49.38;101967.34;5054318;28;20029;-80
2022/06/28 01:30:07;;;;;;;32.10;30.38;;;;;;;20.25;49.59;101961.31;5053079;28;20043;-79
2022/06/28 01:32:33;;;;;;;33.08;31.08;;;;;;;20.23;49.66;101972.53;5052883;28;20037;-79
2022/06/28 01:35:01;;;;;;;31.80;30.10;;;;;;;20.22;49.69;101968.16;5054129;28;20355;-80
2022/06/28 01:37:27;;;;;;;32.55;30.17;;;;;;;20.21;49.21;101974.78;5054206;28;20037;-79
2022/06/28 01:39:53;;;;;;;30.40;28.80;;;;;;;20.19;49.33;101971.47;5054031;28;20427;-79
2022/06/28 01:42:18;;;;;;;31.92;30.15;;;;;;;20.16;49.62;101974.78;5053716;28;20021;-79
2022/06/28 01:44:45;;;;;;;32.50;30.73;;;;;;;20.16;49.38;101973.94;5052648;28;20044;-79
2022/06/28 01:47:12;;;;;;;33.30;31.30;;;;;;;20.14;49.75;101973.41;5053711;28;20048;-79
2022/06/28 01:49:39;;;;;;;32.43;30.63;;;;;;;20.12;49.58;101970.13;5053803;28;20037;-80
2022/06/28 01:52:05;;;;;;;30.98;29.33;;;;;;;20.12;49.26;101972.88;5053606;28;20393;-79
2022/06/28 01:54:31;;;;;;;30.35;28.75;;;;;;;20.10;49.31;101973.13;5053757;28;20120;-79
2022/06/28 01:56:56;;;;;;;32.70;29.90;;;;;;;20.09;49.25;101976.97;5053566;28;20064;-79
2022/06/28 01:59:23;;;;;;;31.55;29.65;;;;;;;20.06;49.46;101972.88;5053962;28;20028;-80
2022/06/28 02:01:49;;;;;;;32.33;30.38;;;;;;;20.04;49.14;101969.59;5052304;28;20424;-80
2022/06/28 02:04:23;;;;;;;30.75;29.15;;;;;;;20.03;49.42;101973.44;5053380;28;20033;-80
2022/06/28 02:06:49;;;;;;;31.85;30.00;;;;;;;20.03;49.60;101978.06;5054100;28;20029;-78
2022/06/28 02:09:14;;;;;;;31.48;29.77;;;;;;;20.01;49.54;101985.78;5053585;28;20075;-79
2022/06/28 02:11:40;;;;;;;32.20;30.40;;;;;;;19.99;49.22;101985.22;5053443;28;20079;-80
2022/06/28 02:14:06;;;;;;;31.38;29.58;;;;;;;19.98;49.67;101989.91;5053465;28;20391;-79
2022/06/28 02:16:31;;;;;;;31.88;30.10;;;;;;;19.97;49.31;101985.50;5053210;28;20029;-79
2022/06/28 02:18:56;;;;;;;32.00;30.15;;;;;;;19.94;49.42;101983.31;5053496;28;20036;-79
2022/06/28 02:21:22;;;;;;;31.33;29.73;;;;;;;19.94;49.20;101991.53;5053466;28;20426;-79
2022/06/28 02:23:47;;;;;;;33.25;30.90;;;;;;;19.91;49.20;101983.88;5053467;28;20040;-79
2022/06/28 02:26:13;;;;;;;31.70;29.90;;;;;;;19.89;49.61;101986.88;5053484;28;20445;-79
2022/06/28 02:28:40;;;;;;;32.15;30.05;;;;;;;19.88;49.33;101987.97;5053616;28;20028;-79
2022/06/28 02:31:10;;;;;;;30.23;28.63;;;;;;;19.86;49.54;101992.91;5053047;28;20492;-79
2022/06/28 02:33:35;;;;;;;31.20;29.50;;;;;;;19.83;49.23;101987.97;5053181;28;20114;-79
2022/06/28 02:41:28;;;;;;;31.00;28.38;;;;;;;19.78;49.22;101990.72;5053366;28;20080;-78
2022/06/28 02:43:54;;;;;;;30.52;28.65;;;;;;;19.77;49.05;102002.78;5055159;28;20108;-80
2022/06/28 02:46:19;;;;;;;30.13;28.52;;;;;;;19.76;49.12;102005.81;5057131;28;20032;-79
2022/06/28 02:48:45;;;;;;;30.88;29.27;;;;;;;19.74;49.45;102019.78;5057206;28;20453;-79
2022/06/28 02:51:10;;;;;;;32.00;30.08;;;;;;;19.73;49.30;102025.53;5057686;28;20041;-79
2022/06/28 02:53:36;;;;;;;31.30;29.60;;;;;;;19.71;49.17;102023.06;5057100;28;20120;-79
2022/06/28 02:56:01;;;;;;;31.27;29.60;;;;;;;19.71;49.44;102025.00;5056880;28;20439;-80
2022/06/28 02:58:27;;;;;;;30.75;29.05;;;;;;;19.69;49.61;102024.44;5056974;28;20037;-77
2022/06/28 03:00:52;;;;;;;31.52;29.83;;;;;;;19.66;49.08;102023.03;5057120;28;20033;-78
2022/06/28 03:03:18;;;;;;;30.45;28.85;;;;;;;19.65;48.99;102024.13;5057155;28;20500;-79
2022/06/28 03:05:43;;;;;;;30.95;29.25;;;;;;;19.63;49.29;102032.63;5055683;28;20037;-79
2022/06/28 03:08:09;;;;;;;30.08;28.50;;;;;;;19.62;49.33;102025.47;5055636;28;20492;-79
2022/06/28 03:10:34;;;;;;;31.42;29.40;;;;;;;19.60;48.96;102024.09;5056627;28;20358;-79
2022/06/28 03:12:59;;;;;;;31.63;29.83;;;;;;;19.59;49.33;102027.97;5057121;28;20032;-78
2022/06/28 03:15:25;;;;;;;31.45;29.80;;;;;;;19.57;49.26;102035.63;5056721;28;20040;-78
2022/06/28 03:17:50;;;;;;;31.55;29.55;;;;;;;19.55;48.98;102033.13;5056537;28;20091;-79
2022/06/28 03:20:16;;;;;;;30.35;28.73;;;;;;;19.54;49.01;102039.72;5056966;28;20521;-78
2022/06/28 03:22:41;;;;;;;30.75;28.75;;;;;;;19.52;49.09;102039.16;5056736;28;20025;-78
2022/06/28 03:25:07;;;;;;;30.95;29.05;;;;;;;19.50;49.07;102041.34;5056495;28;20122;-79
2022/06/28 03:27:33;;;;;;;30.58;28.88;;;;;;;19.49;49.43;102044.38;5056903;28;20041;-79
2022/06/28 03:29:58;;;;;;;31.80;29.92;;;;;;;19.47;49.09;102047.38;5056281;28;20117;-77
2022/06/28 03:32:24;;;;;;;29.70;27.98;;;;;;;19.45;49.51;102053.16;5056361;28;20443;-79
2022/06/28 03:34:49;;;;;;;31.33;29.52;;;;;;;19.43;49.05;102052.59;5056102;28;20033;-79
2022/06/28 03:37:15;;;;;;;30.58;28.98;;;;;;;19.43;49.46;102051.78;5056133;28;20086;-79
2022/06/28 03:39:41;;;;;;;30.13;28.58;;;;;;;19.40;49.05;102053.16;5056486;28;20079;-78
2022/06/28 03:42:07;;;;;;;29.83;28.02;;;;;;;19.39;48.98;102067.91;5056090;28;20060;-79
2022/06/28 03:44:32;;;;;;;30.15;28.55;;;;;;;19.38;49.38;102065.47;5056040;28;20033;-79
2022/06/28 03:46:58;;;;;;;30.27;28.67;;;;;;;19.36;49.53;102076.69;5056082;28;20086;-79
2022/06/28 03:49:23;;;;;;;29.85;28.25;;;;;;;19.34;49.30;102069.81;5054529;28;20076;-78
2022/06/28 03:51:48;;;;;;;30.13;28.42;;;;;;;19.33;49.14;102068.19;5055867;28;20036;-78
2022/06/28 03:54:14;;;;;;;30.10;28.30;;;;;;;19.31;49.11;102073.94;5055813;28;20505;-79
2022/06/28 03:56:39;;;;;;;31.15;29.45;;;;;;;19.30;49.45;102064.03;5055869;28;20025;-78
2022/06/28 03:59:04;;;;;;;29.92;28.08;;;;;;;19.29;49.41;102072.56;5055305;28;20065;-77
2022/06/28 04:01:30;;;;;;;31.35;29.35;;;;;;;19.27;49.23;102063.78;5055693;28;20061;-78
2022/06/28 04:03:55;;;;;;;31.30;29.50;;;;;;;19.24;49.23;102067.88;5055735;28;20033;-78
2022/06/28 04:06:20;;;;;;;30.17;28.38;;;;;;;19.24;49.04;102076.09;5055621;28;20067;-77
2022/06/28 04:08:46;;;;;;;30.15;28.33;;;;;;;19.22;49.17;102067.31;5055797;28;20479;-73
2022/06/28 04:11:14;;;;;;;30.88;29.08;;;;;;;19.20;49.19;102064.00;5055418;28;20472;-79
2022/06/28 04:13:48;;;;;;;30.10;28.45;;;;;;;19.18;49.32;102060.75;5054517;28;20102;-79
2022/06/28 04:16:14;;;;;;;29.75;28.05;;;;;;;19.17;48.99;102064.56;5056163;28;20445;-79
2022/06/28 04:18:40;;;;;;;30.27;28.73;;;;;;;19.15;49.43;102066.72;5055569;28;20115;-79
2022/06/28 04:21:07;;;;;;;30.25;28.55;;;;;;;19.14;48.94;102067.84;5055869;28;20436;-79
2022/06/28 04:23:32;;;;;;;29.58;27.98;;;;;;;19.12;49.51;102068.09;5055844;28;20041;-79
2022/06/28 04:25:57;;;;;;;30.25;28.60;;;;;;;19.10;49.08;102059.34;5054928;28;20107;-80
2022/06/28 04:28:23;;;;;;;29.52;27.92;;;;;;;19.10;49.20;102077.66;5055396;28;20040;-80
2022/06/28 04:30:48;;;;;;;29.63;28.08;;;;;;;19.07;49.33;102070.81;5055296;28;20071;-78
2022/06/28 04:33:14;;;;;;;29.38;27.85;;;;;;;19.08;49.08;102077.13;5055457;28;20037;-81
2022/06/28 04:35:39;;;;;;;28.77;27.27;;;;;;;19.05;48.92;102074.91;5055276;28;20083;-79
2022/06/28 04:38:05;;;;;;;29.70;27.90;;;;;;;19.02;49.13;102066.16;5055680;28;20041;-80
2022/06/28 04:40:30;;;;;;;28.65;27.20;;;;;;;19.01;48.95;102072.72;5055060;28;20037;-79
2022/06/28 04:42:55;;;;;;;30.27;28.60;;;;;;;19.00;49.13;102065.59;5054965;28;20111;-79
2022/06/28 04:45:21;;;;;;;29.35;27.80;;;;;;;18.99;48.95;102065.84;5055047;28;20090;-80
2022/06/28 04:47:47;;;;;;;29.52;28.02;;;;;;;18.97;49.05;102071.59;5054727;28;20029;-79
2022/06/28 04:50:13;;;;;;;28.48;27.08;;;;;;;18.96;49.44;102075.44;5054855;28;20033;-77
2022/06/28 04:52:39;;;;;;;29.10;27.60;;;;;;;18.94;49.15;102072.13;5054936;28;20025;-78
2022/06/28 04:55:04;;;;;;;30.90;29.00;;;;;;;18.93;49.46;102078.72;5054536;28;20033;-79
2022/06/28 04:57:30;;;;;;;28.70;27.05;;;;;;;18.93;49.31;102077.88;5055218;28;20121;-79
2022/06/28 04:59:56;;;;;;;29.10;27.52;;;;;;;18.91;49.54;102077.31;5054983;28;20040;-79
2022/06/28 05:02:21;;;;;;;30.30;28.70;;;;;;;18.91;49.41;102077.31;5054654;28;20037;-79
2022/06/28 05:04:47;;;;;;;28.23;26.73;;;;;;;18.89;49.50;102074.84;5055263;28;20068;-78
2022/06/28 05:07:12;;;;;;;28.92;27.33;;;;;;;18.88;49.12;102073.22;5054098;28;20036;-79
2022/06/28 05:09:38;;;;;;;28.80;27.27;;;;;;;18.86;49.42;102075.38;5054726;28;20039;-79
2022/06/28 05:12:04;;;;;;;29.65;28.05;;;;;;;18.86;49.66;102077.31;5053748;28;20047;-79
2022/06/28 05:14:29;;;;;;;29.40;27.83;;;;;;;18.85;49.31;102073.75;5054771;28;20037;-78
2022/06/28 05:16:55;;;;;;;28.48;27.05;;;;;;;18.85;49.06;102078.38;5054393;28;20033;-72
2022/06/28 05:19:20;;;;;;;30.58;28.63;;;;;;;18.85;49.52;102073.75;5053763;28;20135;-77
2022/06/28 05:21:45;;;;;;;29.92;28.30;;;;;;;18.84;49.43;102074.81;5054377;28;20073;-79
2022/06/28 05:24:11;;;;;;;27.98;26.27;;;;;;;18.83;49.26;102067.72;5054753;28;20025;-78
2022/06/28 05:26:36;;;;;;;29.40;27.83;;;;;;;18.84;49.64;102083.03;5059421;28;20477;-78
2022/06/28 05:29:01;;;;;;;29.30;27.50;;;;;;;18.84;49.47;102071.25;5054486;28;20045;-78
2022/06/28 05:31:27;;;;;;;29.38;27.42;;;;;;;18.84;49.40;102069.34;5054245;28;20033;-79
2022/06/28 05:33:53;;;;;;;28.50;26.85;;;;;;;18.85;49.69;102076.47;5054316;28;20029;-79
2022/06/28 05:36:18;;;;;;;28.85;26.95;;;;;;;18.85;49.54;102076.47;5053824;28;20044;-78
2022/06/28 05:38:43;;;;;;;29.02;26.70;;;;;;;18.86;49.66;102069.09;5053918;28;20036;-81
2022/06/28 05:41:12;;;;;;;28.77;27.27;;;;;;;18.85;49.72;102067.41;5052677;28;20488;-81
2022/06/28 05:43:37;;;;;;;27.27;25.67;;;;;;;18.85;49.50;102062.78;5054424;28;20036;-77
2022/06/28 05:46:02;;;;;;;29.83;28.10;;;;;;;18.86;49.42;102067.16;5053803;28;20381;-81
2022/06/28 05:48:28;;;;;;;28.17;26.58;;;;;;;18.88;49.74;102054.03;5053691;28;20118;-81
2022/06/28 05:50:53;;;;;;;28.48;26.88;;;;;;;18.89;49.85;102054.84;5053824;28;20032;-80
2022/06/28 05:53:19;;;;;;;28.38;26.77;;;;;;;18.90;49.56;102057.34;5053886;28;20029;-82
2022/06/28 05:55:44;;;;;;;28.10;26.50;;;;;;;18.90;50.04;102054.59;5053777;28;20124;-81
2022/06/28 05:58:10;;;;;;;28.95;27.20;;;;;;;18.91;50.12;102056.25;5053623;28;20144;-83
2022/06/28 06:00:37;;;;;;;29.65;27.80;;;;;;;18.93;49.67;102054.06;5053219;28;20033;-80
2022/06/28 06:03:03;;;;;;;28.52;27.00;;;;;;;18.95;49.55;102054.63;5053697;28;20061;-81
2022/06/28 06:05:28;;;;;;;28.40;26.65;;;;;;;18.96;50.03;102052.72;5053566;28;20067;-82
2022/06/28 06:07:54;;;;;;;29.25;27.65;;;;;;;18.98;49.60;102051.34;5053726;28;20060;-82
2022/06/28 06:10:19;;;;;;;29.83;28.15;;;;;;;19.00;49.78;102056.56;5054091;28;20174;-80
2022/06/28 06:12:45;;;;;;;28.17;26.73;;;;;;;19.02;49.82;102059.84;5054584;28;20033;-82
2022/06/28 06:15:11;;;;;;;28.42;26.92;;;;;;;19.04;49.84;102063.13;5053662;28;20029;-82
2022/06/28 06:17:36;;;;;;;29.38;27.48;;;;;;;19.07;49.72;102062.59;5053435;28;20032;-79
2022/06/28 06:20:02;;;;;;;28.38;26.77;;;;;;;19.09;50.00;102059.59;5057463;28;20037;-83
2022/06/28 06:22:29;;;;;;;26.95;25.42;;;;;;;19.11;49.96;102069.19;5057554;28;20504;-82
2022/06/28 06:24:54;;;;;;;27.40;25.88;;;;;;;19.13;50.02;102063.47;5057340;28;20040;-80
2022/06/28 06:27:19;;;;;;;28.70;26.88;;;;;;;19.16;50.15;102071.13;5057725;28;20033;-82
2022/06/28 06:29:45;;;;;;;26.58;25.17;;;;;;;19.17;50.22;102062.63;5057468;28;20049;-82
2022/06/28 06:32:10;;;;;;;27.67;26.25;;;;;;;19.21;50.30;102061.00;5057590;28;20091;-82
2022/06/28 06:34:36;;;;;;;26.80;25.20;;;;;;;19.23;49.97;102053.38;5057390;28;20071;-82
2022/06/28 06:37:01;;;;;;;27.90;26.15;;;;;;;19.25;50.62;102064.03;5056591;28;20465;-82
2022/06/28 06:39:26;;;;;;;27.67;26.17;;;;;;;19.27;50.28;102061.84;5057180;28;20086;-82
2022/06/28 06:41:52;;;;;;;28.52;26.83;;;;;;;19.31;50.58;102065.72;5057940;28;20098;-82
2022/06/28 06:44:18;;;;;;;28.52;26.92;;;;;;;19.33;50.51;102071.75;5055983;28;20064;-82
2022/06/28 06:46:43;;;;;;;28.13;26.65;;;;;;;19.36;50.68;102070.38;5055807;28;20454;-81
2022/06/28 06:49:09;;;;;;;28.65;27.00;;;;;;;19.38;50.99;102079.97;5057076;28;20033;-84
2022/06/28 06:51:35;;;;;;;29.48;27.33;;;;;;;19.42;50.81;102080.25;5057000;28;20029;-81
2022/06/28 06:54:00;;;;;;;29.48;27.20;;;;;;;19.44;50.77;102081.63;5057619;28;20056;-82
2022/06/28 06:56:26;;;;;;;30.05;28.30;;;;;;;19.48;51.03;102079.19;5039947;28;20037;-82
2022/06/28 06:58:51;;;;;;;28.90;27.45;;;;;;;19.52;50.87;102091.25;5057239;28;20032;-82
2022/06/28 07:01:17;;;;;;;30.48;28.50;;;;;;;19.56;50.82;102092.38;5056914;28;20044;-83
2022/06/28 07:03:44;;;;;;;30.58;28.67;;;;;;;19.60;50.84;102082.47;5056910;28;20029;-82
2022/06/28 07:06:14;;;;;;;28.83;27.15;;;;;;;19.65;50.92;102081.69;5056814;28;20081;-81
2022/06/28 07:08:40;;;;;;;29.35;27.42;;;;;;;19.69;50.83;102082.81;5056707;28;20034;-82
2022/06/28 07:11:06;;;;;;;28.88;27.33;;;;;;;19.73;50.76;102091.31;5056493;28;20033;-80
2022/06/28 07:13:31;;;;;;;27.65;26.10;;;;;;;19.77;50.91;102090.50;5056757;28;20499;-82
2022/06/28 07:15:57;;;;;;;29.70;27.98;;;;;;;19.82;50.84;102086.94;5056474;28;20029;-82
2022/06/28 07:18:23;;;;;;;29.02;27.33;;;;;;;19.86;51.31;102086.13;5056398;28;20065;-81
2022/06/28 07:20:52;;;;;;;29.85;28.15;;;;;;;19.91;51.31;102082.59;5056517;28;20094;-82
2022/06/28 07:23:17;;;;;;;31.20;29.50;;;;;;;19.95;51.05;102083.66;5057147;28;20079;-81
2022/06/28 07:25:43;;;;;;;30.27;28.38;;;;;;;20.02;51.23;102086.97;5056062;28;20049;-80
2022/06/28 07:28:10;;;;;;;30.55;28.25;;;;;;;20.07;50.92;102086.16;5056290;28;20119;-80
2022/06/28 07:30:36;;;;;;;30.73;29.08;;;;;;;20.12;50.93;102086.16;5054496;28;20029;-83
2022/06/28 07:33:02;;;;;;;29.58;28.02;;;;;;;20.17;50.81;102083.41;5056226;28;20094;-81
2022/06/28 07:35:27;;;;;;;30.27;28.77;;;;;;;20.23;50.83;102093.25;5056119;28;20063;-82
2022/06/28 07:37:53;;;;;;;30.70;29.10;;;;;;;20.28;51.15;102087.78;5056679;28;20044;-81
2022/06/28 07:40:19;;;;;;;32.97;31.15;;;;;;;20.34;51.38;102093.28;5056094;28;20037;-81
2022/06/28 07:42:44;;;;;;;31.70;30.10;;;;;;;20.39;51.30;102088.63;5056616;28;20032;-82
2022/06/28 07:45:09;;;;;;;32.10;30.10;;;;;;;20.46;50.60;102086.41;5056074;28;20029;-82
2022/06/28 07:47:35;;;;;;;30.92;29.33;;;;;;;20.52;51.09;102088.03;5056037;28;20111;-81
2022/06/28 07:52:45;;;;;;;32.75;30.73;;;;;;;20.65;50.77;102083.94;5056384;28;20090;-81
2022/06/28 07:55:11;;;;;;;32.13;30.60;;;;;;;20.71;50.81;102081.97;5055906;28;20376;-81
2022/06/28 07:57:38;;;;;;;32.92;30.75;;;;;;;20.79;50.15;102086.06;5055867;28;20096;-81
2022/06/28 08:00:06;;;;;;;32.50;30.50;;;;;;;20.85;50.59;102080.31;5056290;28;20037;-81
2022/06/28 08:02:32;;;;;;;34.47;32.67;;;;;;;20.92;50.34;102077.28;5055378;28;20045;-79
2022/06/28 08:04:58;;;;;;;32.53;30.77;;;;;;;21.00;50.49;102081.34;5056225;28;20116;-79
2022/06/28 08:07:23;;;;;;;33.75;32.03;;;;;;;21.06;50.39;102083.78;5055435;28;20064;-81
2022/06/28 08:09:49;;;;;;;33.47;31.63;;;;;;;21.13;50.29;102087.06;5056091;28;20079;-80
2022/06/28 08:12:15;;;;;;;32.67;30.67;;;;;;;21.21;50.03;102082.09;5055635;28;20029;-81
2022/06/28 08:14:40;;;;;;;33.60;31.75;;;;;;;21.29;49.99;102087.00;5055435;28;20394;-81
2022/06/28 08:17:06;;;;;;;34.33;32.63;;;;;;;21.35;50.22;102072.94;5055439;28;20116;-80
2022/06/28 08:19:32;;;;;;;35.05;33.13;;;;;;;21.42;50.34;102069.94;5055419;28;20439;-80
2022/06/28 08:21:57;;;;;;;35.40;33.42;;;;;;;21.48;50.41;102063.28;5055341;28;20028;-81
2022/06/28 08:24:23;;;;;;;35.38;33.25;;;;;;;21.56;50.04;102065.41;5055778;28;20040;-82
2022/06/28 08:26:48;;;;;;;34.95;33.22;;;;;;;21.63;50.11;102056.88;5054656;28;20052;-82
2022/06/28 08:29:16;;;;;;;34.80;32.80;;;;;;;21.72;50.05;102051.56;5053778;28;20044;-83
2022/06/28 08:31:43;;;;;;;34.63;32.67;;;;;;;21.79;49.36;102060.31;5055722;28;20424;-83
2022/06/28 08:34:09;;;;;;;35.58;33.75;;;;;;;21.86;49.57;102058.06;5055494;28;20036;-82
2022/06/28 08:36:35;;;;;;;36.75;34.85;;;;;;;21.94;49.88;102051.13;5055260;28;20115;-82
2022/06/28 08:39:00;;;;;;;35.45;33.75;;;;;;;22.03;49.15;102060.41;5055483;28;20133;-79
2022/06/28 08:41:27;;;;;;;36.88;35.05;;;;;;;22.11;49.75;102061.72;5054741;28;20029;-80
2022/06/28 08:43:54;;;;;;;36.25;33.97;;;;;;;22.19;49.48;102050.94;5055787;28;20060;-83
2022/06/28 08:46:21;;;;;;;36.72;34.90;;;;;;;22.26;49.60;102039.59;5055035;28;20025;-82
2022/06/28 08:48:52;;;;;;;36.22;34.42;;;;;;;22.35;49.15;102042.53;5055474;28;20033;-82
2022/06/28 08:51:18;;;;;;;36.80;34.95;;;;;;;22.42;48.87;102048.50;5055563;28;20457;-80
2022/06/28 08:53:46;;;;;;;38.05;35.95;;;;;;;22.52;49.00;102062.16;5054757;28;20490;-81
2022/06/28 08:56:13;;;;;;;36.78;34.97;;;;;;;22.61;49.30;102043.09;5054892;28;20036;-80
2022/06/28 08:58:42;;;;;;;38.90;36.80;;;;;;;22.69;48.64;102042.44;5055111;28;20032;-80
2022/06/28 09:01:09;;;;;;;38.45;36.35;;;;;;;22.76;48.79;102034.66;5054628;28;20029;-80
2022/06/28 09:03:34;;;;;;;39.55;37.35;;;;;;;22.86;48.79;102030.94;5054787;28;20061;-81
2022/06/28 09:06:00;;;;;;;40.35;38.30;;;;;;;22.95;48.62;102034.69;5054831;28;20033;-83
2022/06/28 09:08:26;;;;;;;39.25;37.22;;;;;;;23.03;48.11;102031.31;5053804;28;20381;-81
2022/06/28 09:10:51;;;;;;;38.53;36.72;;;;;;;23.11;47.98;102041.69;5053167;28;20095;-77
2022/06/28 09:13:19;;;;;;;39.72;37.63;;;;;;;23.21;48.16;102032.44;5054646;28;20083;-79
2022/06/28 09:15:53;;;;;;;38.95;36.95;;;;;;;23.30;48.40;102029.84;5054152;28;20496;-81
2022/06/28 09:18:21;;;;;;;39.15;37.25;;;;;;;23.40;47.96;102034.38;5054613;28;20029;-81
2022/06/28 09:20:51;;;;;;;38.83;36.83;;;;;;;23.48;47.80;102034.53;5054173;28;20056;-81
2022/06/28 09:23:26;;;;;;;40.50;38.47;;;;;;;23.59;47.66;102028.88;5054203;28;20039;-81
2022/06/28 09:25:54;;;;;;;42.28;40.25;;;;;;;23.66;47.69;102018.25;5053719;28;20092;-80
2022/06/28 09:28:29;;;;;;;39.33;37.53;;;;;;;23.75;47.30;102022.81;5053732;28;20489;-80
2022/06/28 09:31:17;;;;;;;41.45;39.40;;;;;;;23.86;47.22;102019.88;5054848;28;20029;-79
2022/06/28 09:33:47;;;;;;;41.03;38.92;;;;;;;23.95;47.27;102018.09;5054404;28;20045;-79
2022/06/28 09:36:14;;;;;;;41.38;39.35;;;;;;;24.04;46.98;102018.19;5053885;28;20044;-79
2022/06/28 09:38:40;;;;;;;41.10;38.90;;;;;;;24.12;46.58;102017.53;5053907;28;20033;-78
2022/06/28 09:41:18;;;;;;;41.63;39.58;;;;;;;24.23;46.79;102018.97;5054305;28;20029;-78
2022/06/28 09:44:03;;;;;;;41.45;39.45;;;;;;;24.32;47.13;102006.09;5054352;28;20461;-79
2022/06/28 09:46:31;;;;;;;41.75;39.55;;;;;;;24.40;46.56;102005.38;5054159;28;20032;-73
2022/06/28 09:49:04;;;;;;;40.60;38.70;;;;;;;24.51;46.90;101994.97;5053521;28;20116;-79
2022/06/28 09:51:32;;;;;;;43.28;41.08;;;;;;;24.61;46.41;101988.44;5053980;28;20029;-78
2022/06/28 09:54:02;;;;;;;42.27;40.23;;;;;;;24.70;46.37;101988.53;5054109;28;20075;-81
2022/06/28 09:56:31;;;;;;;46.10;43.50;;;;;;;24.80;46.33;101988.31;5053711;28;20024;-80
2022/06/28 09:58:57;;;;;;;44.72;42.60;;;;;;;24.88;45.99;101984.81;5054253;28;20021;-80
2022/06/28 10:01:23;;;;;;;46.25;43.67;;;;;;;24.98;45.69;101984.59;5053545;28;20032;-79
2022/06/28 10:03:49;;;;;;;46.85;44.40;;;;;;;25.05;45.53;101987.75;5053732;28;20032;-78
2022/06/28 10:06:17;;;;;;;45.45;43.25;;;;;;;25.16;45.31;101982.00;5054299;28;20434;-79
2022/06/28 10:08:43;;;;;;;46.70;44.20;;;;;;;25.25;45.71;101985.69;5053374;28;20060;-80
2022/06/28 10:11:10;;;;;;;47.70;45.20;;;;;;;25.35;44.80;101979.09;5053356;28;20065;-79
2022/06/28 10:16:48;;;;;;;45.95;43.85;;;;;;;25.55;44.93;101970.31;5054004;28;20260;-79
2022/06/28 10:19:21;;;;;;;46.55;44.08;;;;;;;25.64;44.70;101964.81;5053499;28;20549;-79
2022/06/28 10:21:53;;;;;;;48.45;46.00;;;;;;;25.73;44.40;101971.25;5053661;28;20021;-78
2022/06/28 10:24:19;;;;;;;48.55;46.03;;;;;;;25.82;44.80;101971.28;5053689;28;20032;-78
2022/06/28 10:27:06;;;;;;;49.55;46.70;;;;;;;25.90;44.38;101965.84;5052062;28;20048;-80
2022/06/28 10:29:32;;;;;;;46.08;43.78;;;;;;;26.02;44.68;101967.19;5053421;28;20049;-80
2022/06/28 10:31:57;;;;;;;48.83;46.45;;;;;;;26.12;44.41;101964.16;5053804;28;20100;-79
2022/06/28 10:34:47;;;;;;;48.13;45.40;;;;;;;26.23;43.56;101962.75;5053474;28;20086;-79
2022/06/28 10:37:12;;;;;;;47.03;44.60;;;;;;;26.30;43.28;101965.84;5053287;28;20579;-80
2022/06/28 10:39:38;;;;;;;48.45;46.15;;;;;;;26.39;43.56;101957.56;5053170;28;20120;-80
2022/06/28 10:42:12;;;;;;;51.58;49.05;;;;;;;26.49;43.67;101950.94;5053552;28;20074;-79
2022/06/28 10:44:38;;;;;;;51.30;48.80;;;;;;;26.56;43.64;101943.00;5053886;28;20167;-79
2022/06/28 10:47:03;;;;;;;51.05;48.63;;;;;;;26.64;43.41;101942.19;5052964;28;20108;-80
2022/06/28 10:49:48;;;;;;;53.60;50.90;;;;;;;26.74;43.51;101947.44;5053411;28;20454;-81
2022/06/28 10:52:25;;;;;;;50.55;47.88;;;;;;;26.83;43.18;101941.06;5053407;28;20059;-80
2022/06/28 10:54:51;;;;;;;54.45;51.75;;;;;;;26.92;42.96;101936.34;5053533;28;20430;-79
2022/06/28 10:57:25;;;;;;;51.80;49.03;;;;;;;27.01;42.71;101936.34;5053131;28;20481;-79
2022/06/28 10:59:53;;;;;;;51.28;48.78;;;;;;;27.09;42.83;101932.75;5053048;28;20029;-79
2022/06/28 11:02:19;;;;;;;51.85;49.40;;;;;;;27.17;42.35;101932.78;5053035;28;20025;-76
2022/06/28 11:04:45;;;;;;;53.53;50.80;;;;;;;27.27;42.07;101936.41;5054507;28;20522;-77
2022/06/28 11:07:21;;;;;;;52.53;50.03;;;;;;;27.36;42.34;101926.09;5056846;28;20062;-79
2022/06/28 11:10:06;;;;;;;55.92;53.10;;;;;;;27.45;41.97;101917.75;5056551;28;20029;-79
2022/06/28 11:12:41;;;;;;;55.83;53.13;;;;;;;27.52;41.69;101913.34;5057016;28;20086;-80
2022/06/28 11:15:09;;;;;;;53.92;50.90;;;;;;;27.61;41.71;101910.53;5057259;28;20033;-81
2022/06/28 11:17:44;;;;;;;53.53;50.92;;;;;;;27.68;41.21;101905.28;5056615;28;20033;-79
2022/06/28 11:20:12;;;;;;;54.80;52.22;;;;;;;27.77;41.01;101905.25;5056498;28;20052;-81